createdAt,value
2019-06-26T00:00:47.445Z,101599.52
2019-06-26T00:03:15.892Z,101601.09
2019-06-26T00:05:44.335Z,101602.87
2019-06-26T00:08:12.790Z,101609.80
2019-06-26T00:10:41.223Z,101601.30
2019-06-26T00:13:24.850Z,101607.09
2019-06-26T00:15:39.108Z,101608.45
2019-06-26T00:18:07.517Z,101604.34
2019-06-26T00:20:36.097Z,101604.37
2019-06-26T00:23:04.559Z,101606.56
2019-06-26T00:25:33.212Z,101606.98
2019-06-26T00:28:01.653Z,101601.41
2019-06-26T00:30:30.086Z,101607.50
2019-06-26T00:32:58.535Z,101600.61
2019-06-26T00:35:26.982Z,101599.66
2019-06-26T00:37:55.497Z,101599.75
2019-06-26T00:40:23.965Z,101602.69
2019-06-26T00:42:52.414Z,101607.70
2019-06-26T00:45:20.862Z,101601.95
2019-06-26T00:47:49.301Z,101599.74
2019-06-26T00:50:18.170Z,101598.38
2019-06-26T00:52:46.603Z,101602.59
2019-06-26T00:55:15.111Z,101602.80
2019-06-26T00:57:43.550Z,101601.33
2019-06-26T01:00:12.635Z,101602.05
2019-06-26T01:02:41.070Z,101609.80
2019-06-26T01:05:11.324Z,101598.59
2019-06-26T01:07:39.024Z,101593.58
2019-06-26T01:10:09.707Z,101587.58
2019-06-26T01:12:38.168Z,101595.47
2019-06-26T01:15:07.337Z,101586.92
2019-06-26T01:17:35.764Z,101582.52
2019-06-26T01:20:07.599Z,101579.48
2019-06-26T01:22:36.036Z,101579.61
2019-06-26T01:25:05.805Z,101578.97
2019-06-26T01:27:34.269Z,101580.02
2019-06-26T01:30:03.310Z,101585.34
2019-06-26T01:32:31.945Z,101584.41
2019-06-26T01:35:00.418Z,101582.53
2019-06-26T01:37:29.867Z,101589.23
2019-06-26T01:39:58.306Z,101586.59
2019-06-26T01:42:26.748Z,101594.36
2019-06-26T01:44:55.194Z,101588.27
2019-06-26T01:47:23.649Z,101592.56
2019-06-26T01:49:52.145Z,101587.95
2019-06-26T01:52:21.245Z,101596.85
2019-06-26T01:54:49.675Z,101596.01
2019-06-26T01:57:18.111Z,101595.05
2019-06-26T01:59:46.589Z,101592.13
2019-06-26T02:02:15.026Z,101599.46
2019-06-26T02:04:43.466Z,101597.25
2019-06-26T02:07:11.901Z,101594.85
2019-06-26T02:09:40.342Z,101600.70
2019-06-26T02:12:08.768Z,101595.58
2019-06-26T02:14:37.220Z,101593.58
2019-06-26T02:17:05.655Z,101600.19
2019-06-26T02:19:34.187Z,101596.51
2019-06-26T02:22:02.635Z,101594.19
2019-06-26T02:24:31.070Z,101591.67
2019-06-26T02:26:59.582Z,101598.48
2019-06-26T02:29:28.023Z,101589.39
2019-06-26T02:31:56.481Z,101590.75
2019-06-26T02:34:24.909Z,101589.47
2019-06-26T02:36:53.369Z,101596.72
2019-06-26T02:39:21.815Z,101595.84
2019-06-26T02:41:50.271Z,101595.64
2019-06-26T02:44:18.733Z,101589.23
2019-06-26T02:46:47.177Z,101587.03
2019-06-26T02:49:15.621Z,101590.80
2019-06-26T02:51:44.047Z,101585.16
2019-06-26T02:54:12.509Z,101592.59
2019-06-26T02:56:40.952Z,101590.28
2019-06-26T02:59:09.393Z,101592.16
2019-06-26T03:01:37.819Z,101596.24
2019-06-26T03:04:06.291Z,101598.12
2019-06-26T03:06:34.707Z,101595.20
2019-06-26T03:09:03.152Z,101602.84
2019-06-26T03:11:31.605Z,101594.36
2019-06-26T03:14:00.074Z,101598.64
2019-06-26T03:16:28.526Z,101605.45
2019-06-26T03:18:56.967Z,101610.69
2019-06-26T03:21:25.411Z,101597.92
2019-06-26T03:23:53.844Z,101607.05
2019-06-26T03:26:22.284Z,101605.28
2019-06-26T03:28:50.725Z,101611.45
2019-06-26T03:31:19.163Z,101609.56
2019-06-26T03:33:47.600Z,101624.45
2019-06-26T03:36:16.065Z,101624.02
2019-06-26T03:38:44.507Z,101621.53
2019-06-26T03:41:13.116Z,101612.73
2019-06-26T03:43:41.565Z,101620.17
2019-06-26T03:46:09.996Z,101617.25
2019-06-26T03:48:38.517Z,101626.37
2019-06-26T03:51:06.956Z,101630.77
2019-06-26T03:53:35.404Z,101629.73
2019-06-26T03:56:03.821Z,101633.30
2019-06-26T03:58:32.322Z,101632.77
2019-06-26T04:01:00.774Z,101625.44
2019-06-26T04:03:29.270Z,101579.51
2019-06-26T04:05:57.703Z,101631.44
2019-06-26T04:08:26.154Z,101631.95
2019-06-26T04:10:54.584Z,101635.13
2019-06-26T04:13:23.016Z,101629.69
2019-06-26T04:15:51.450Z,101630.98
2019-06-26T04:18:19.879Z,101630.47
2019-06-26T04:20:48.330Z,101631.08
2019-06-26T04:23:16.761Z,101626.91
2019-06-26T04:25:45.186Z,101627.73
2019-06-26T04:28:13.645Z,101623.97
2019-06-26T04:30:42.076Z,101625.84
2019-06-26T04:33:10.516Z,101622.56
2019-06-26T04:35:38.953Z,101630.26
2019-06-26T04:38:07.384Z,101626.66
2019-06-26T04:40:35.823Z,101631.86
2019-06-26T04:43:04.258Z,101633.81
2019-06-26T04:45:32.686Z,101630.13
2019-06-26T04:48:01.126Z,101624.93
2019-06-26T04:50:29.568Z,101625.94
2019-06-26T04:52:57.992Z,101624.40
2019-06-26T04:55:26.452Z,101627.14
2019-06-26T04:57:54.880Z,101626.65
2019-06-26T05:00:24.372Z,101633.02
2019-06-26T05:02:52.795Z,101628.29
2019-06-26T05:05:21.284Z,101638.09
2019-06-26T05:07:49.733Z,101634.63
2019-06-26T05:10:19.350Z,101633.13
2019-06-26T05:12:47.788Z,101639.87
2019-06-26T05:15:16.818Z,101636.53
2019-06-26T05:17:45.277Z,101643.06
2019-06-26T05:20:15.747Z,101645.66
2019-06-26T05:22:44.185Z,101643.82
2019-06-26T05:25:12.751Z,101649.36
2019-06-26T05:27:41.408Z,101656.45
2019-06-26T05:30:11.375Z,101623.05
2019-06-26T05:32:39.813Z,101656.85
2019-06-26T05:35:09.685Z,101658.59
2019-06-26T05:37:38.123Z,101656.05
2019-06-26T05:40:11.665Z,101663.16
2019-06-26T05:42:40.109Z,101668.05
2019-06-26T05:45:09.397Z,101663.58
2019-06-26T05:47:37.861Z,101671.42
2019-06-26T05:50:16.237Z,101672.47
2019-06-26T05:52:44.691Z,101675.48
2019-06-26T05:55:14.365Z,101674.02
2019-06-26T05:57:42.820Z,101681.01
2019-06-26T06:00:14.661Z,101675.92
2019-06-26T06:02:43.099Z,101688.34
2019-06-26T06:05:12.052Z,101689.84
2019-06-26T06:07:40.819Z,101684.77
2019-06-26T06:10:09.390Z,101691.55
2019-06-26T06:12:37.823Z,101696.67
2019-06-26T06:15:09.956Z,101702.53
2019-06-26T06:17:38.387Z,101704.40
2019-06-26T06:20:07.600Z,101712.56
2019-06-26T06:22:36.004Z,101717.94
2019-06-26T06:25:05.504Z,101718.40
2019-06-26T06:27:33.995Z,101722.05
2019-06-26T06:30:02.655Z,101719.16
2019-06-26T06:32:31.133Z,101729.60
2019-06-26T06:34:59.557Z,101734.86
2019-06-26T06:37:28.089Z,101737.00
2019-06-26T06:39:56.506Z,101739.52
2019-06-26T06:42:24.943Z,101748.59
2019-06-26T06:44:53.378Z,101740.02
2019-06-26T06:47:21.808Z,101736.62
2019-06-26T06:49:50.251Z,101744.86
2019-06-26T06:52:18.680Z,101752.03
2019-06-26T06:54:47.203Z,101740.20
2019-06-26T06:57:15.698Z,101751.78
2019-06-26T06:59:44.151Z,101752.91
2019-06-26T07:02:12.575Z,101756.05
2019-06-26T07:04:41.360Z,101763.70
2019-06-26T07:07:09.762Z,101765.91
2019-06-26T07:09:38.201Z,101775.58
2019-06-26T07:12:06.642Z,101772.53
2019-06-26T07:14:35.069Z,101779.50
2019-06-26T07:17:16.094Z,101788.47
2019-06-26T07:19:33.674Z,101786.49
2019-06-26T07:22:02.112Z,101784.91
2019-06-26T07:24:30.547Z,101797.70
2019-06-26T07:26:58.978Z,101796.39
2019-06-26T07:29:27.414Z,101796.69
2019-06-26T07:31:55.861Z,101798.96
2019-06-26T07:34:24.325Z,101795.70
2019-06-26T07:36:52.754Z,101804.55
2019-06-26T07:39:21.198Z,101800.96
2019-06-26T07:41:49.647Z,101803.42
2019-06-26T07:44:18.167Z,101802.37
2019-06-26T07:46:46.599Z,101802.97
2019-06-26T07:49:15.016Z,101807.69
2019-06-26T07:51:43.445Z,101804.76
2019-06-26T07:54:11.870Z,101817.73
2019-06-26T07:56:40.321Z,101812.26
2019-06-26T07:59:08.746Z,101812.91
2019-06-26T08:01:37.208Z,101814.97
2019-06-26T08:04:05.668Z,101818.27
2019-06-26T08:06:34.090Z,101817.86
2019-06-26T08:09:02.815Z,101820.08
2019-06-26T08:11:31.239Z,101825.39
2019-06-26T08:13:59.692Z,101830.83
2019-06-26T08:16:28.123Z,101825.75
2019-06-26T08:18:56.541Z,101829.28
2019-06-26T08:21:24.979Z,101833.34
2019-06-26T08:23:53.410Z,101837.53
2019-06-26T08:26:21.911Z,101831.06
2019-06-26T08:28:50.361Z,101828.61
2019-06-26T08:31:18.771Z,101827.08
2019-06-26T08:33:49.040Z,101822.70
2019-06-26T08:36:17.464Z,101830.55
2019-06-26T08:38:45.902Z,101831.74
2019-06-26T08:41:14.320Z,101827.34
2019-06-26T08:43:42.834Z,101839.09
2019-06-26T08:46:11.264Z,101839.27
2019-06-26T08:48:40.787Z,101843.08
2019-06-26T08:51:08.698Z,101832.27
2019-06-26T08:53:37.073Z,101836.83
2019-06-26T08:56:05.489Z,101841.52
2019-06-26T08:58:33.941Z,101840.04
2019-06-26T09:01:02.386Z,101836.83
2019-06-26T09:03:30.812Z,101848.94
2019-06-26T09:05:59.636Z,101855.87
2019-06-26T09:08:28.212Z,101864.73
2019-06-26T09:10:56.819Z,101857.60
2019-06-26T09:13:25.213Z,101872.75
2019-06-26T09:15:53.642Z,101882.83
2019-06-26T09:18:35.043Z,101885.84
2019-06-26T09:20:52.229Z,101886.98
2019-06-26T09:23:20.656Z,101892.02
2019-06-26T09:25:49.156Z,101891.00
2019-06-26T09:28:18.020Z,101900.10
2019-06-26T09:30:46.445Z,101897.91
2019-06-26T09:33:14.904Z,101910.05
2019-06-26T09:35:43.336Z,101916.03
2019-06-26T09:38:11.784Z,101916.86
2019-06-26T09:40:40.231Z,101915.83
2019-06-26T09:43:08.657Z,101924.03
2019-06-26T09:45:37.091Z,101923.52
2019-06-26T09:48:05.669Z,101925.93
2019-06-26T09:50:34.097Z,101936.29
2019-06-26T09:53:05.259Z,101931.48
2019-06-26T09:55:32.708Z,101941.55
2019-06-26T09:58:01.149Z,101939.74
2019-06-26T10:00:30.577Z,101951.94
2019-06-26T10:02:58.344Z,101953.52
2019-06-26T10:05:26.852Z,101948.45
2019-06-26T10:07:55.391Z,101947.72
2019-06-26T10:10:23.826Z,101953.56
2019-06-26T10:12:52.400Z,101957.27
2019-06-26T10:15:20.972Z,101953.20
2019-06-26T10:17:49.406Z,101967.53
2019-06-26T10:20:18.271Z,101967.74
2019-06-26T10:22:46.708Z,101974.14
2019-06-26T10:25:16.510Z,101968.16
2019-06-26T10:27:44.957Z,101987.61
2019-06-26T10:30:13.730Z,101985.78
2019-06-26T10:32:42.152Z,101990.20
2019-06-26T10:35:10.876Z,101994.62
2019-06-26T10:37:39.297Z,101995.95
2019-06-26T10:40:08.059Z,102004.17
2019-06-26T10:42:36.489Z,102006.39
2019-06-26T10:45:07.344Z,102002.65
2019-06-26T10:47:39.506Z,102004.92
2019-06-26T10:50:06.911Z,102005.82
2019-06-26T10:52:35.599Z,101998.30
2019-06-26T10:55:06.188Z,102015.44
2019-06-26T10:57:34.623Z,102011.84
2019-06-26T11:00:04.562Z,102012.23
2019-06-26T11:02:33.266Z,102015.28
2019-06-26T11:05:01.745Z,102017.63
2019-06-26T11:07:30.447Z,101936.19
2019-06-26T11:09:58.882Z,102017.84
2019-06-26T11:12:27.311Z,102017.11
2019-06-26T11:14:55.834Z,102007.53
2019-06-26T11:17:24.193Z,102021.92
2019-06-26T11:19:55.435Z,102019.45
2019-06-26T11:22:22.817Z,102015.19
2019-06-26T11:24:51.587Z,102011.97
2019-06-26T11:27:20.063Z,102023.45
2019-06-26T11:29:48.513Z,102017.96
2019-06-26T11:32:16.951Z,102017.05
2019-06-26T11:34:45.450Z,102036.84
2019-06-26T11:37:13.868Z,102025.46
2019-06-26T11:39:42.297Z,102007.44
2019-06-26T11:42:10.725Z,102018.02
2019-06-26T11:44:39.159Z,102021.16
2019-06-26T11:47:07.594Z,102026.54
2019-06-26T11:49:36.019Z,102025.95
2019-06-26T11:52:04.445Z,102038.17
2019-06-26T11:54:32.894Z,102036.45
2019-06-26T11:57:01.307Z,102036.09
2019-06-26T11:59:29.982Z,102050.16
2019-06-26T12:01:58.419Z,102053.02
2019-06-26T12:04:26.854Z,102058.80
2019-06-26T12:06:55.285Z,102059.50
2019-06-26T12:09:23.732Z,102064.77
2019-06-26T12:11:52.167Z,102065.84
2019-06-26T12:14:20.591Z,102070.28
2019-06-26T12:16:49.040Z,102066.09
2019-06-26T12:19:19.880Z,102058.22
2019-06-26T12:21:47.694Z,102053.34
2019-06-26T12:24:16.191Z,102065.41
2019-06-26T12:26:44.621Z,102058.56
2019-06-26T12:29:13.060Z,102062.58
2019-06-26T12:31:41.490Z,102079.86
2019-06-26T12:34:09.932Z,102081.09
2019-06-26T12:36:38.361Z,102084.50
2019-06-26T12:39:07.860Z,102079.20
2019-06-26T12:41:36.356Z,102077.30
2019-06-26T12:44:04.961Z,102083.88
2019-06-26T12:46:33.387Z,102076.10
2019-06-26T12:49:01.892Z,102079.51
2019-06-26T12:51:30.322Z,102079.51
2019-06-26T12:53:58.755Z,102077.70
2019-06-26T12:56:27.190Z,102083.06
2019-06-26T12:58:59.701Z,102080.71
2019-06-26T13:01:25.800Z,102077.22
2019-06-26T13:03:54.221Z,102079.19
2019-06-26T13:06:22.657Z,102082.08
2019-06-26T13:08:51.087Z,102080.38
2019-06-26T13:11:19.518Z,102075.89
2019-06-26T13:14:01.404Z,102080.24
2019-06-26T13:16:18.125Z,102088.63
2019-06-26T13:18:46.525Z,102085.81
2019-06-26T13:21:14.972Z,102074.00
2019-06-26T13:23:43.383Z,102077.44
2019-06-26T13:26:11.840Z,102066.78
2019-06-26T13:28:40.273Z,102074.61
2019-06-26T13:31:09.030Z,102076.69
2019-06-26T13:33:37.548Z,102079.89
2019-06-26T13:36:05.963Z,102075.76
2019-06-26T13:38:34.401Z,102081.84
2019-06-26T13:41:02.817Z,102082.53
2019-06-26T13:43:31.249Z,102082.53
2019-06-26T13:45:59.707Z,102086.28
2019-06-26T13:48:28.130Z,102092.84
2019-06-26T13:51:08.864Z,102089.67
2019-06-26T13:53:26.729Z,102090.64
2019-06-26T13:55:55.158Z,102094.14
2019-06-26T13:58:23.583Z,102094.37
2019-06-26T14:00:52.006Z,102101.34
2019-06-26T14:03:20.420Z,102103.34
2019-06-26T14:05:48.851Z,102102.16
2019-06-26T14:08:17.282Z,102111.70
2019-06-26T14:10:45.710Z,102112.41
2019-06-26T14:13:14.169Z,102106.97
2019-06-26T14:15:42.628Z,102091.96
2019-06-26T14:18:11.053Z,102093.41
2019-06-26T14:20:39.488Z,102104.92
2019-06-26T14:23:07.907Z,102111.11
2019-06-26T14:25:37.268Z,102119.38
2019-06-26T14:28:04.974Z,102112.04
2019-06-26T14:30:33.339Z,102121.19
2019-06-26T14:33:01.765Z,102115.86
2019-06-26T14:35:30.213Z,102113.28
2019-06-26T14:37:58.633Z,102122.84
2019-06-26T14:40:27.052Z,102110.80
2019-06-26T14:42:55.480Z,102122.44
2019-06-26T14:45:23.941Z,102134.31
2019-06-26T14:47:52.368Z,102151.20
2019-06-26T14:50:21.041Z,102137.35
2019-06-26T14:52:49.472Z,102142.58
2019-06-26T14:55:18.169Z,102143.11
2019-06-26T14:57:46.607Z,102148.06
2019-06-26T15:00:16.398Z,102131.02
2019-06-26T15:02:44.858Z,102134.23
2019-06-26T15:05:13.348Z,102126.41
2019-06-26T15:07:41.795Z,102131.48
2019-06-26T15:10:10.863Z,102138.66
2019-06-26T15:12:39.324Z,102136.42
2019-06-26T15:15:09.079Z,102128.77
2019-06-26T15:17:37.568Z,102138.36
2019-06-26T15:20:07.314Z,102136.02
2019-06-26T15:22:35.730Z,102130.94
2019-06-26T15:25:06.642Z,102153.00
2019-06-26T15:27:35.340Z,102150.02
2019-06-26T15:30:06.230Z,102143.33
2019-06-26T15:32:34.651Z,102136.73
2019-06-26T15:35:04.622Z,102151.75
2019-06-26T15:37:33.072Z,102150.06
2019-06-26T15:40:01.557Z,102139.33
2019-06-26T15:42:30.616Z,102159.53
2019-06-26T15:44:59.076Z,102147.12
2019-06-26T15:47:27.514Z,102138.16
2019-06-26T15:49:55.954Z,102138.59
2019-06-26T15:52:24.505Z,102142.42
2019-06-26T15:54:52.933Z,102147.48
2019-06-26T15:57:21.369Z,102144.01
2019-06-26T15:59:49.809Z,102153.80
2019-06-26T16:02:18.240Z,102158.00
2019-06-26T16:04:46.703Z,102166.12
2019-06-26T16:07:15.169Z,102166.88
2019-06-26T16:09:43.620Z,102167.81
2019-06-26T16:12:12.047Z,102166.77
2019-06-26T16:14:40.489Z,102169.39
2019-06-26T16:17:26.747Z,102161.31
2019-06-26T16:19:55.177Z,102173.94
2019-06-26T16:22:32.400Z,102182.61
2019-06-26T16:24:53.791Z,102187.85
2019-06-26T16:27:22.232Z,102181.41
2019-06-26T16:29:50.687Z,102187.77
2019-06-26T16:32:19.127Z,102198.73
2019-06-26T16:34:47.625Z,102192.70
2019-06-26T16:37:16.072Z,102211.27
2019-06-26T16:39:44.508Z,102205.73
2019-06-26T16:42:12.944Z,102200.63
2019-06-26T16:44:41.381Z,102199.64
2019-06-26T16:47:09.881Z,102194.42
2019-06-26T16:49:38.324Z,102193.27
2019-06-26T16:52:06.761Z,102190.84
2019-06-26T16:54:35.243Z,102199.97
2019-06-26T16:57:03.670Z,102191.43
2019-06-26T16:59:32.141Z,102191.04
2019-06-26T17:02:00.567Z,102191.00
2019-06-26T17:04:28.993Z,102193.14
2019-06-26T17:06:57.420Z,102195.67
2019-06-26T17:09:25.847Z,102203.01
2019-06-26T17:11:54.286Z,102189.57
2019-06-26T17:14:22.710Z,102199.59
2019-06-26T17:16:51.147Z,102193.95
2019-06-26T17:19:19.577Z,102194.62
2019-06-26T17:21:48.013Z,102193.89
2019-06-26T17:24:16.440Z,102206.05
2019-06-26T17:26:44.868Z,102182.94
2019-06-26T17:29:13.290Z,102202.06
2019-06-26T17:31:41.728Z,102210.05
2019-06-26T17:34:10.152Z,102207.33
2019-06-26T17:36:38.588Z,102205.27
2019-06-26T17:39:07.656Z,102211.98
2019-06-26T17:41:36.108Z,102207.83
2019-06-26T17:44:04.526Z,102189.45
2019-06-26T17:46:32.950Z,102212.87
2019-06-26T17:49:01.406Z,102214.75
2019-06-26T17:51:29.914Z,102215.95
2019-06-26T17:53:58.365Z,102211.52
2019-06-26T17:56:26.784Z,102208.75
2019-06-26T17:58:55.256Z,102223.58
2019-06-26T18:01:23.759Z,102218.02
2019-06-26T18:03:52.183Z,102212.98
2019-06-26T18:06:20.613Z,102213.94
2019-06-26T18:08:49.036Z,102217.42
2019-06-26T18:11:17.482Z,102210.66
2019-06-26T18:13:45.919Z,102212.79
2019-06-26T18:16:14.343Z,102214.55
2019-06-26T18:18:42.779Z,102217.28
2019-06-26T18:21:11.344Z,102223.41
2019-06-26T18:23:39.739Z,102222.10
2019-06-26T18:26:13.568Z,102229.06
2019-06-26T18:28:37.600Z,102221.09
2019-06-26T18:31:05.970Z,102228.73
2019-06-26T18:33:34.402Z,102232.97
2019-06-26T18:36:02.831Z,102226.58
2019-06-26T18:38:31.270Z,102240.83
2019-06-26T18:40:59.694Z,102234.90
2019-06-26T18:43:28.128Z,102241.17
2019-06-26T18:45:56.582Z,102238.63
2019-06-26T18:48:25.171Z,102248.85
2019-06-26T18:50:53.706Z,102245.63
2019-06-26T18:53:22.135Z,102250.23
2019-06-26T18:55:51.361Z,102253.14
2019-06-26T18:58:19.799Z,102255.69
2019-06-26T19:00:48.344Z,102263.16
2019-06-26T19:03:16.893Z,102262.17
2019-06-26T19:05:45.411Z,102253.19
2019-06-26T19:08:13.868Z,102266.06
2019-06-26T19:10:42.958Z,102275.58
2019-06-26T19:13:11.391Z,102271.30
2019-06-26T19:15:39.827Z,102266.42
2019-06-26T19:18:08.281Z,102281.66
2019-06-26T19:20:36.767Z,102280.97
2019-06-26T19:23:05.262Z,102272.86
2019-06-26T19:25:33.707Z,102276.06
2019-06-26T19:28:02.186Z,102280.81
2019-06-26T19:30:30.644Z,102291.30
2019-06-26T19:32:59.042Z,102279.98
2019-06-26T19:35:27.588Z,102304.02
2019-06-26T19:37:56.036Z,102306.23
2019-06-26T19:40:24.538Z,102300.11
2019-06-26T19:42:52.976Z,102302.48
2019-06-26T19:45:21.647Z,102287.91
2019-06-26T19:47:50.083Z,102292.84
2019-06-26T19:50:18.755Z,102286.38
2019-06-26T19:52:47.197Z,102291.29
2019-06-26T19:55:15.693Z,102299.75
2019-06-26T19:57:44.121Z,102286.72
2019-06-26T20:00:13.796Z,102290.61
2019-06-26T20:02:42.230Z,102292.97
2019-06-26T20:05:11.395Z,102298.56
2019-06-26T20:07:39.826Z,102301.09
2019-06-26T20:10:10.054Z,102301.44
2019-06-26T20:12:38.554Z,102300.91
2019-06-26T20:15:07.735Z,102302.59
2019-06-26T20:17:36.161Z,102303.26
2019-06-26T20:20:06.658Z,102305.12
2019-06-26T20:22:35.058Z,102316.23
2019-06-26T20:25:04.537Z,102319.60
2019-06-26T20:27:33.024Z,102331.95
2019-06-26T20:30:01.481Z,102331.95
2019-06-26T20:32:30.682Z,102333.97
2019-06-26T20:34:59.122Z,102309.38
2019-06-26T20:37:27.583Z,102320.39
2019-06-26T20:39:56.041Z,102327.29
2019-06-26T20:42:24.506Z,102334.91
2019-06-26T20:44:52.919Z,102326.47
2019-06-26T20:47:21.348Z,102328.64
2019-06-26T20:49:53.546Z,102331.20
2019-06-26T20:52:19.944Z,102335.09
2019-06-26T20:55:00.471Z,102329.66
2019-06-26T20:57:18.626Z,102329.47
2019-06-26T20:59:47.035Z,102335.89
2019-06-26T21:02:15.474Z,102341.77
2019-06-26T21:04:43.935Z,102335.55
2019-06-26T21:07:12.378Z,102342.63
2019-06-26T21:09:40.797Z,102329.41
2019-06-26T21:12:09.261Z,102338.88
2019-06-26T21:14:37.683Z,102344.80
2019-06-26T21:17:06.139Z,102342.37
2019-06-26T21:19:34.585Z,102343.88
2019-06-26T21:22:03.013Z,102341.34
2019-06-26T21:24:31.443Z,102344.73
2019-06-26T21:26:59.894Z,102345.36
2019-06-26T21:29:28.328Z,102347.38
2019-06-26T21:31:56.761Z,102346.52
2019-06-26T21:34:25.456Z,102342.27
2019-06-26T21:36:53.882Z,102338.87
2019-06-26T21:39:22.313Z,102351.16
2019-06-26T21:41:50.751Z,102347.56
2019-06-26T21:44:19.178Z,102345.37
2019-06-26T21:46:47.624Z,102350.61
2019-06-26T21:49:16.050Z,102351.42
2019-06-26T21:51:44.495Z,102349.00
2019-06-26T21:54:12.923Z,102347.45
2019-06-26T21:56:41.360Z,102345.91
2019-06-26T21:59:09.799Z,102343.55
2019-06-26T22:01:38.350Z,102351.00
2019-06-26T22:04:07.192Z,102348.14
2019-06-26T22:06:36.050Z,102347.60
2019-06-26T22:09:05.749Z,102349.30
2019-06-26T22:11:34.177Z,102346.25
2019-06-26T22:14:02.681Z,102353.86
2019-06-26T22:16:31.237Z,102356.87
2019-06-26T22:18:59.986Z,102362.47
2019-06-26T22:21:28.420Z,102351.95
2019-06-26T22:23:56.859Z,102348.09
2019-06-26T22:26:25.312Z,102354.97
2019-06-26T22:28:53.739Z,102366.73
2019-06-26T22:31:22.199Z,102356.27
2019-06-26T22:33:50.635Z,102356.22
2019-06-26T22:36:19.068Z,102360.33
2019-06-26T22:38:47.503Z,102368.94
2019-06-26T22:41:15.933Z,102364.03
2019-06-26T22:43:44.377Z,102369.92
2019-06-26T22:46:12.826Z,102364.88
2019-06-26T22:48:41.279Z,102372.77
2019-06-26T22:51:09.748Z,102377.42
2019-06-26T22:53:38.171Z,102380.13
2019-06-26T22:56:08.196Z,102375.71
2019-06-26T22:58:36.935Z,102369.95
2019-06-26T23:01:05.385Z,102368.05
2019-06-26T23:03:33.813Z,102367.16
2019-06-26T23:06:02.254Z,102380.11
2019-06-26T23:08:30.687Z,102376.53
2019-06-26T23:10:59.147Z,102382.73
2019-06-26T23:13:27.571Z,102379.98
2019-06-26T23:15:56.098Z,102381.47
2019-06-26T23:18:24.592Z,102385.72
2019-06-26T23:20:52.980Z,102390.07
2019-06-26T23:23:21.420Z,102391.42
2019-06-26T23:25:49.888Z,102393.54
2019-06-26T23:28:18.330Z,102393.05
2019-06-26T23:30:46.763Z,102392.39
2019-06-26T23:33:15.247Z,102399.44
2019-06-26T23:35:43.687Z,102400.08
2019-06-26T23:38:12.130Z,102403.16
2019-06-26T23:40:40.553Z,102399.27
2019-06-26T23:43:09.048Z,102397.58
2019-06-26T23:45:37.451Z,102403.17
2019-06-26T23:48:06.353Z,102397.33
2019-06-26T23:50:34.784Z,102398.05
2019-06-26T23:53:03.212Z,102396.38
2019-06-26T23:55:31.788Z,102401.92
2019-06-26T23:58:00.232Z,102394.50
